sensor_id;sensor_type;location;lat;lon;timestamp;temperature;humidity
19924;DHT22;10124;53.068;18.224;2023-02-24T00:01:57;6.00;99.90
19924;DHT22;10124;53.068;18.224;2023-02-24T00:04:33;6.10;99.90
19924;DHT22;10124;53.068;18.224;2023-02-24T00:07:01;6.00;99.90
19924;DHT22;10124;53.068;18.224;2023-02-24T00:09:30;6.00;99.90
19924;DHT22;10124;53.068;18.224;2023-02-24T00:12:00;6.00;99.90
19924;DHT22;10124;53.068;18.224;2023-02-24T00:14:31;6.00;99.90
19924;DHT22;10124;53.068;18.224;2023-02-24T00:19:29;6.00;99.90
19924;DHT22;10124;53.068;18.224;2023-02-24T00:22:01;6.00;99.90
19924;DHT22;10124;53.068;18.224;2023-02-24T00:26:59;6.00;99.90
19924;DHT22;10124;53.068;18.224;2023-02-24T00:29:28;6.10;99.90
19924;DHT22;10124;53.068;18.224;2023-02-24T00:34:32;6.10;99.90
19924;DHT22;10124;53.068;18.224;2023-02-24T00:37:00;6.10;99.90
19924;DHT22;10124;53.068;18.224;2023-02-24T00:39:28;6.10;99.90
19924;DHT22;10124;53.068;18.224;2023-02-24T00:41:56;6.30;99.90
19924;DHT22;10124;53.068;18.224;2023-02-24T00:44:36;6.10;99.90
19924;DHT22;10124;53.068;18.224;2023-02-24T00:47:06;6.10;99.90
19924;DHT22;10124;53.068;18.224;2023-02-24T00:49:35;6.20;99.90
19924;DHT22;10124;53.068;18.224;2023-02-24T00:52:12;6.20;99.90
19924;DHT22;10124;53.068;18.224;2023-02-24T00:54:44;6.10;99.90
19924;DHT22;10124;53.068;18.224;2023-02-24T00:57:15;6.10;99.90
19924;DHT22;10124;53.068;18.224;2023-02-24T00:59:44;6.70;99.90
19924;DHT22;10124;53.068;18.224;2023-02-24T01:07:16;6.00;99.90
19924;DHT22;10124;53.068;18.224;2023-02-24T01:09:43;6.00;99.90
19924;DHT22;10124;53.068;18.224;2023-02-24T01:12:12;6.30;99.90
19924;DHT22;10124;53.068;18.224;2023-02-24T01:17:29;6.10;99.90
19924;DHT22;10124;53.068;18.224;2023-02-24T01:22:47;6.20;99.90
19924;DHT22;10124;53.068;18.224;2023-02-24T01:25:16;6.10;99.90
19924;DHT22;10124;53.068;18.224;2023-02-24T01:40:13;6.10;99.90
19924;DHT22;10124;53.068;18.224;2023-02-24T01:42:47;6.10;99.90
19924;DHT22;10124;53.068;18.224;2023-02-24T01:45:19;6.10;99.90
19924;DHT22;10124;53.068;18.224;2023-02-24T01:47:48;6.70;99.90
19924;DHT22;10124;53.068;18.224;2023-02-24T01:50:20;6.10;99.90
19924;DHT22;10124;53.068;18.224;2023-02-24T01:52:51;6.10;99.90
19924;DHT22;10124;53.068;18.224;2023-02-24T01:55:23;6.10;99.90
19924;DHT22;10124;53.068;18.224;2023-02-24T01:57:56;6.10;99.90
19924;DHT22;10124;53.068;18.224;2023-02-24T02:00:25;6.10;99.90
19924;DHT22;10124;53.068;18.224;2023-02-24T02:03:25;6.10;99.90
19924;DHT22;10124;53.068;18.224;2023-02-24T02:05:58;6.10;99.90
19924;DHT22;10124;53.068;18.224;2023-02-24T02:10:59;6.00;99.90
19924;DHT22;10124;53.068;18.224;2023-02-24T02:13:33;6.00;99.90
19924;DHT22;10124;53.068;18.224;2023-02-24T02:24:23;6.00;99.90
19924;DHT22;10124;53.068;18.224;2023-02-24T02:39:17;6.00;99.90
19924;DHT22;10124;53.068;18.224;2023-02-24T02:49:57;6.10;99.90
19924;DHT22;10124;53.068;18.224;2023-02-24T02:52:40;6.00;99.90
19924;DHT22;10124;53.068;18.224;2023-02-24T02:55:38;6.00;99.90
19924;DHT22;10124;53.068;18.224;2023-02-24T02:58:12;6.00;99.90
19924;DHT22;10124;53.068;18.224;2023-02-24T03:00:50;6.00;99.90
19924;DHT22;10124;53.068;18.224;2023-02-24T03:03:32;6.00;99.90
19924;DHT22;10124;53.068;18.224;2023-02-24T03:06:09;6.00;99.90
19924;DHT22;10124;53.068;18.224;2023-02-24T03:08:44;6.00;99.90
19924;DHT22;10124;53.068;18.224;2023-02-24T03:11:16;6.00;99.90
19924;DHT22;10124;53.068;18.224;2023-02-24T03:13:50;6.90;99.90
19924;DHT22;10124;53.068;18.224;2023-02-24T03:16:19;6.00;99.90
19924;DHT22;10124;53.068;18.224;2023-02-24T03:18:53;6.10;99.90
19924;DHT22;10124;53.068;18.224;2023-02-24T03:21:27;6.00;99.90
19924;DHT22;10124;53.068;18.224;2023-02-24T03:24:01;6.00;99.90
19924;DHT22;10124;53.068;18.224;2023-02-24T03:26:51;6.10;99.90
19924;DHT22;10124;53.068;18.224;2023-02-24T03:32:12;6.40;99.90
19924;DHT22;10124;53.068;18.224;2023-02-24T03:34:55;6.00;99.90
19924;DHT22;10124;53.068;18.224;2023-02-24T03:37:26;5.80;99.90
19924;DHT22;10124;53.068;18.224;2023-02-24T03:39:58;6.00;99.90
19924;DHT22;10124;53.068;18.224;2023-02-24T03:45:03;6.00;99.90
19924;DHT22;10124;53.068;18.224;2023-02-24T03:50:10;5.90;99.90
19924;DHT22;10124;53.068;18.224;2023-02-24T03:52:58;6.00;99.90
19924;DHT22;10124;53.068;18.224;2023-02-24T03:58:16;5.90;99.90
19924;DHT22;10124;53.068;18.224;2023-02-24T04:00:55;5.90;99.90
19924;DHT22;10124;53.068;18.224;2023-02-24T04:15:04;5.90;99.90
19924;DHT22;10124;53.068;18.224;2023-02-24T04:17:49;5.90;99.90
19924;DHT22;10124;53.068;18.224;2023-02-24T04:20:21;5.90;99.90
19924;DHT22;10124;53.068;18.224;2023-02-24T04:22:59;6.00;99.90
19924;DHT22;10124;53.068;18.224;2023-02-24T04:25:29;6.00;99.90
19924;DHT22;10124;53.068;18.224;2023-02-24T04:27:59;5.80;99.90
19924;DHT22;10124;53.068;18.224;2023-02-24T04:30:33;5.90;99.90
19924;DHT22;10124;53.068;18.224;2023-02-24T04:33:01;5.60;99.90
19924;DHT22;10124;53.068;18.224;2023-02-24T04:37:57;5.90;99.90
19924;DHT22;10124;53.068;18.224;2023-02-24T04:42:54;6.20;99.90
19924;DHT22;10124;53.068;18.224;2023-02-24T04:45:26;5.80;99.90
19924;DHT22;10124;53.068;18.224;2023-02-24T04:47:57;7.30;99.90
19924;DHT22;10124;53.068;18.224;2023-02-24T04:50:34;5.70;99.90
19924;DHT22;10124;53.068;18.224;2023-02-24T04:53:04;8.00;99.90
19924;DHT22;10124;53.068;18.224;2023-02-24T04:55:38;5.80;99.90
19924;DHT22;10124;53.068;18.224;2023-02-24T04:58:10;5.90;99.90
19924;DHT22;10124;53.068;18.224;2023-02-24T05:00:39;5.70;99.90
19924;DHT22;10124;53.068;18.224;2023-02-24T05:03:10;5.80;99.90
19924;DHT22;10124;53.068;18.224;2023-02-24T05:08:10;5.70;99.90
19924;DHT22;10124;53.068;18.224;2023-02-24T05:10:42;5.70;99.90
19924;DHT22;10124;53.068;18.224;2023-02-24T05:13:15;6.10;99.90
19924;DHT22;10124;53.068;18.224;2023-02-24T05:15:44;5.70;99.90
19924;DHT22;10124;53.068;18.224;2023-02-24T05:18:14;5.80;99.90
19924;DHT22;10124;53.068;18.224;2023-02-24T05:20:47;5.70;99.90
19924;DHT22;10124;53.068;18.224;2023-02-24T05:23:38;5.70;99.90
19924;DHT22;10124;53.068;18.224;2023-02-24T05:26:08;5.70;99.90
19924;DHT22;10124;53.068;18.224;2023-02-24T05:28:39;5.70;99.90
19924;DHT22;10124;53.068;18.224;2023-02-24T05:31:13;5.70;99.90
19924;DHT22;10124;53.068;18.224;2023-02-24T05:33:43;5.70;99.90
19924;DHT22;10124;53.068;18.224;2023-02-24T05:36:14;5.70;99.90
19924;DHT22;10124;53.068;18.224;2023-02-24T05:38:45;5.70;99.90
19924;DHT22;10124;53.068;18.224;2023-02-24T05:41:16;5.70;99.90
19924;DHT22;10124;53.068;18.224;2023-02-24T05:43:46;5.60;99.90
19924;DHT22;10124;53.068;18.224;2023-02-24T05:46:24;5.70;99.90
19924;DHT22;10124;53.068;18.224;2023-02-24T05:53:52;5.60;99.90
19924;DHT22;10124;53.068;18.224;2023-02-24T05:56:22;5.60;99.90
19924;DHT22;10124;53.068;18.224;2023-02-24T05:58:50;5.90;99.90
19924;DHT22;10124;53.068;18.224;2023-02-24T06:01:33;5.60;99.90
19924;DHT22;10124;53.068;18.224;2023-02-24T06:04:04;5.60;99.90
19924;DHT22;10124;53.068;18.224;2023-02-24T06:09:04;5.70;99.90
19924;DHT22;10124;53.068;18.224;2023-02-24T06:11:41;5.70;99.90
19924;DHT22;10124;53.068;18.224;2023-02-24T06:14:10;5.60;99.90
19924;DHT22;10124;53.068;18.224;2023-02-24T06:16:40;5.70;99.90
19924;DHT22;10124;53.068;18.224;2023-02-24T06:19:11;5.60;99.90
19924;DHT22;10124;53.068;18.224;2023-02-24T06:21:41;6.00;99.90
19924;DHT22;10124;53.068;18.224;2023-02-24T06:24:12;5.70;99.90
19924;DHT22;10124;53.068;18.224;2023-02-24T06:26:41;5.70;99.90
19924;DHT22;10124;53.068;18.224;2023-02-24T06:29:16;5.60;99.90
19924;DHT22;10124;53.068;18.224;2023-02-24T06:31:44;5.80;99.90
19924;DHT22;10124;53.068;18.224;2023-02-24T06:34:12;6.00;99.90
19924;DHT22;10124;53.068;18.224;2023-02-24T06:36:44;5.70;99.90
19924;DHT22;10124;53.068;18.224;2023-02-24T06:39:15;6.00;99.90
19924;DHT22;10124;53.068;18.224;2023-02-24T06:41:43;5.90;99.90
19924;DHT22;10124;53.068;18.224;2023-02-24T06:44:11;5.90;99.90
19924;DHT22;10124;53.068;18.224;2023-02-24T06:51:36;5.90;99.90
19924;DHT22;10124;53.068;18.224;2023-02-24T06:56:32;5.70;99.90
19924;DHT22;10124;53.068;18.224;2023-02-24T06:59:04;5.60;99.90
19924;DHT22;10124;53.068;18.224;2023-02-24T07:01:33;5.60;99.90
19924;DHT22;10124;53.068;18.224;2023-02-24T07:04:02;5.50;99.90
19924;DHT22;10124;53.068;18.224;2023-02-24T07:06:47;5.40;99.90
19924;DHT22;10124;53.068;18.224;2023-02-24T07:09:21;5.30;99.90
19924;DHT22;10124;53.068;18.224;2023-02-24T07:11:50;5.90;99.90
19924;DHT22;10124;53.068;18.224;2023-02-24T07:14:20;5.30;99.90
19924;DHT22;10124;53.068;18.224;2023-02-24T07:19:23;5.20;99.90
19924;DHT22;10124;53.068;18.224;2023-02-24T07:21:55;5.20;99.90
19924;DHT22;10124;53.068;18.224;2023-02-24T07:24:30;5.80;99.90
19924;DHT22;10124;53.068;18.224;2023-02-24T07:27:21;5.30;99.90
19924;DHT22;10124;53.068;18.224;2023-02-24T07:29:50;5.50;99.90
19924;DHT22;10124;53.068;18.224;2023-02-24T07:32:21;5.50;99.90
19924;DHT22;10124;53.068;18.224;2023-02-24T07:34:49;5.90;99.90
19924;DHT22;10124;53.068;18.224;2023-02-24T07:37:16;5.50;99.90
19924;DHT22;10124;53.068;18.224;2023-02-24T07:39:46;3.50;99.90
19924;DHT22;10124;53.068;18.224;2023-02-24T07:42:14;5.40;99.90
19924;DHT22;10124;53.068;18.224;2023-02-24T07:49:43;5.40;99.90
19924;DHT22;10124;53.068;18.224;2023-02-24T07:54:40;5.30;99.90
19924;DHT22;10124;53.068;18.224;2023-02-24T07:57:07;5.10;99.90
19924;DHT22;10124;53.068;18.224;2023-02-24T08:22:43;4.40;99.90
19924;DHT22;10124;53.068;18.224;2023-02-24T08:25:14;4.50;99.90
19924;DHT22;10124;53.068;18.224;2023-02-24T08:27:50;4.40;99.90
19924;DHT22;10124;53.068;18.224;2023-02-24T08:30:40;4.40;99.90
19924;DHT22;10124;53.068;18.224;2023-02-24T08:33:20;4.30;99.90
19924;DHT22;10124;53.068;18.224;2023-02-24T08:35:51;4.40;99.90
19924;DHT22;10124;53.068;18.224;2023-02-24T08:40:54;4.40;99.90
19924;DHT22;10124;53.068;18.224;2023-02-24T08:43:30;4.80;99.90
19924;DHT22;10124;53.068;18.224;2023-02-24T08:48:33;4.60;99.90
19924;DHT22;10124;53.068;18.224;2023-02-24T08:51:15;4.80;99.90
19924;DHT22;10124;53.068;18.224;2023-02-24T08:56:15;4.70;99.90
19924;DHT22;10124;53.068;18.224;2023-02-24T08:58:56;4.90;99.90
19924;DHT22;10124;53.068;18.224;2023-02-24T09:01:27;4.90;99.90
19924;DHT22;10124;53.068;18.224;2023-02-24T09:04:12;4.90;99.90
19924;DHT22;10124;53.068;18.224;2023-02-24T09:06:50;5.50;99.90
19924;DHT22;10124;53.068;18.224;2023-02-24T09:09:37;4.80;1.00
19924;DHT22;10124;53.068;18.224;2023-02-24T09:12:09;4.90;1.00
19924;DHT22;10124;53.068;18.224;2023-02-24T09:14:50;4.80;1.00
19924;DHT22;10124;53.068;18.224;2023-02-24T09:17:24;4.60;1.00
19924;DHT22;10124;53.068;18.224;2023-02-24T09:20:16;5.50;1.00
19924;DHT22;10124;53.068;18.224;2023-02-24T09:25:56;4.70;1.00
19924;DHT22;10124;53.068;18.224;2023-02-24T09:28:25;4.80;1.00
19924;DHT22;10124;53.068;18.224;2023-02-24T09:30:58;4.90;1.00
19924;DHT22;10124;53.068;18.224;2023-02-24T09:33:30;5.20;1.00
19924;DHT22;10124;53.068;18.224;2023-02-24T09:36:12;4.80;1.00
19924;DHT22;10124;53.068;18.224;2023-02-24T09:38:48;4.80;1.00
19924;DHT22;10124;53.068;18.224;2023-02-24T09:41:38;4.30;1.00
19924;DHT22;10124;53.068;18.224;2023-02-24T09:50:04;4.80;1.00
19924;DHT22;10124;53.068;18.224;2023-02-24T10:07:11;4.60;1.00
19924;DHT22;10124;53.068;18.224;2023-02-24T10:09:45;4.60;1.00
19924;DHT22;10124;53.068;18.224;2023-02-24T10:17:27;4.50;1.00
19924;DHT22;10124;53.068;18.224;2023-02-24T10:22:48;4.80;1.00
19924;DHT22;10124;53.068;18.224;2023-02-24T10:25:41;4.60;1.00
19924;DHT22;10124;53.068;18.224;2023-02-24T10:34:03;4.70;1.00
19924;DHT22;10124;53.068;18.224;2023-02-24T10:39:15;4.60;1.00
19924;DHT22;10124;53.068;18.224;2023-02-24T10:41:49;4.60;1.00
19924;DHT22;10124;53.068;18.224;2023-02-24T10:44:27;4.50;1.00
19924;DHT22;10124;53.068;18.224;2023-02-24T10:47:09;4.50;1.00
19924;DHT22;10124;53.068;18.224;2023-02-24T10:49:43;4.80;1.00
19924;DHT22;10124;53.068;18.224;2023-02-24T10:55:08;4.60;1.00
19924;DHT22;10124;53.068;18.224;2023-02-24T10:58:05;4.70;1.00
19924;DHT22;10124;53.068;18.224;2023-02-24T11:00:43;4.50;1.00
19924;DHT22;10124;53.068;18.224;2023-02-24T11:06:22;4.40;1.00
19924;DHT22;10124;53.068;18.224;2023-02-24T11:09:20;4.40;1.00
19924;DHT22;10124;53.068;18.224;2023-02-24T11:14:56;6.30;1.00
19924;DHT22;10124;53.068;18.224;2023-02-24T11:17:54;4.50;1.00
19924;DHT22;10124;53.068;18.224;2023-02-24T11:20:41;4.50;1.00
19924;DHT22;10124;53.068;18.224;2023-02-24T11:23:22;4.40;1.00
19924;DHT22;10124;53.068;18.224;2023-02-24T11:25:58;4.20;1.00
19924;DHT22;10124;53.068;18.224;2023-02-24T11:28:53;3.70;1.00
19924;DHT22;10124;53.068;18.224;2023-02-24T11:47:37;4.40;1.00
19924;DHT22;10124;53.068;18.224;2023-02-24T11:52:42;4.50;1.00
19924;DHT22;10124;53.068;18.224;2023-02-24T11:56:01;6.70;1.00
19924;DHT22;10124;53.068;18.224;2023-02-24T11:58:27;4.60;1.00
19924;DHT22;10124;53.068;18.224;2023-02-24T12:01:05;4.60;1.00
19924;DHT22;10124;53.068;18.224;2023-02-24T12:03:48;4.50;1.00
19924;DHT22;10124;53.068;18.224;2023-02-24T12:06:28;4.40;1.00
19924;DHT22;10124;53.068;18.224;2023-02-24T12:09:02;4.20;1.00
19924;DHT22;10124;53.068;18.224;2023-02-24T12:12:08;5.80;1.00
19924;DHT22;10124;53.068;18.224;2023-02-24T12:15:09;4.00;1.00
19924;DHT22;10124;53.068;18.224;2023-02-24T12:17:52;3.90;1.00
19924;DHT22;10124;53.068;18.224;2023-02-24T12:20:33;3.90;1.00
19924;DHT22;10124;53.068;18.224;2023-02-24T12:23:22;4.20;1.00
19924;DHT22;10124;53.068;18.224;2023-02-24T12:39:29;4.30;1.00
19924;DHT22;10124;53.068;18.224;2023-02-24T12:42:05;4.10;1.00
19924;DHT22;10124;53.068;18.224;2023-02-24T12:45:00;4.20;1.00
19924;DHT22;10124;53.068;18.224;2023-02-24T12:53:07;4.20;1.00
19924;DHT22;10124;53.068;18.224;2023-02-24T12:55:52;4.20;1.00
19924;DHT22;10124;53.068;18.224;2023-02-24T12:58:32;4.20;1.00
19924;DHT22;10124;53.068;18.224;2023-02-24T13:01:11;4.10;1.00
19924;DHT22;10124;53.068;18.224;2023-02-24T13:09:47;4.10;1.00
19924;DHT22;10124;53.068;18.224;2023-02-24T13:12:26;4.00;1.00
19924;DHT22;10124;53.068;18.224;2023-02-24T13:14:55;4.00;1.00
19924;DHT22;10124;53.068;18.224;2023-02-24T13:17:24;4.00;1.00
19924;DHT22;10124;53.068;18.224;2023-02-24T13:19:55;4.10;1.00
19924;DHT22;10124;53.068;18.224;2023-02-24T13:22:29;4.70;1.00
19924;DHT22;10124;53.068;18.224;2023-02-24T13:25:11;4.40;1.00
19924;DHT22;10124;53.068;18.224;2023-02-24T13:27:54;4.60;1.00
19924;DHT22;10124;53.068;18.224;2023-02-24T13:30:24;4.50;1.00
19924;DHT22;10124;53.068;18.224;2023-02-24T13:35:47;4.30;1.00
19924;DHT22;10124;53.068;18.224;2023-02-24T13:52:10;5.40;1.00
19924;DHT22;10124;53.068;18.224;2023-02-24T13:55:13;4.10;1.00
19924;DHT22;10124;53.068;18.224;2023-02-24T14:02:54;4.30;1.00
19924;DHT22;10124;53.068;18.224;2023-02-24T14:05:28;4.30;1.00
19924;DHT22;10124;53.068;18.224;2023-02-24T14:07:58;5.90;1.00
19924;DHT22;10124;53.068;18.224;2023-02-24T14:10:31;4.40;1.00
19924;DHT22;10124;53.068;18.224;2023-02-24T14:13:16;4.60;1.00
19924;DHT22;10124;53.068;18.224;2023-02-24T14:15:46;4.40;1.00
19924;DHT22;10124;53.068;18.224;2023-02-24T14:18:23;4.40;1.00
19924;DHT22;10124;53.068;18.224;2023-02-24T14:20:53;4.40;1.00
19924;DHT22;10124;53.068;18.224;2023-02-24T14:23:24;6.10;1.00
19924;DHT22;10124;53.068;18.224;2023-02-24T14:26:01;4.40;1.00
19924;DHT22;10124;53.068;18.224;2023-02-24T14:28:30;4.40;1.00
19924;DHT22;10124;53.068;18.224;2023-02-24T14:31:03;4.60;1.00
19924;DHT22;10124;53.068;18.224;2023-02-24T14:33:36;4.50;1.00
19924;DHT22;10124;53.068;18.224;2023-02-24T14:36:06;4.60;1.00
19924;DHT22;10124;53.068;18.224;2023-02-24T14:38:40;4.60;1.00
19924;DHT22;10124;53.068;18.224;2023-02-24T14:41:20;4.80;1.00
19924;DHT22;10124;53.068;18.224;2023-02-24T14:43:50;5.60;1.00
19924;DHT22;10124;53.068;18.224;2023-02-24T14:46:19;4.90;1.00
19924;DHT22;10124;53.068;18.224;2023-02-24T14:48:53;4.80;1.00
19924;DHT22;10124;53.068;18.224;2023-02-24T14:51:31;4.80;1.00
19924;DHT22;10124;53.068;18.224;2023-02-24T14:54:06;4.90;1.00
19924;DHT22;10124;53.068;18.224;2023-02-24T14:56:36;4.80;1.00
19924;DHT22;10124;53.068;18.224;2023-02-24T15:01:49;4.80;1.00
19924;DHT22;10124;53.068;18.224;2023-02-24T15:06:52;4.60;1.00
19924;DHT22;10124;53.068;18.224;2023-02-24T15:09:24;4.50;1.00
19924;DHT22;10124;53.068;18.224;2023-02-24T15:11:54;4.50;1.00
19924;DHT22;10124;53.068;18.224;2023-02-24T15:17:00;4.40;1.00
19924;DHT22;10124;53.068;18.224;2023-02-24T15:19:33;4.40;1.00
19924;DHT22;10124;53.068;18.224;2023-02-24T15:22:27;4.70;1.00
19924;DHT22;10124;53.068;18.224;2023-02-24T15:27:55;4.70;1.00
19924;DHT22;10124;53.068;18.224;2023-02-24T15:30:57;4.20;1.00
19924;DHT22;10124;53.068;18.224;2023-02-24T15:33:40;4.10;1.00
19924;DHT22;10124;53.068;18.224;2023-02-24T15:36:12;4.00;1.00
19924;DHT22;10124;53.068;18.224;2023-02-24T15:38:44;4.10;1.00
19924;DHT22;10124;53.068;18.224;2023-02-24T15:41:12;4.00;1.00
19924;DHT22;10124;53.068;18.224;2023-02-24T15:46:31;4.00;1.00
19924;DHT22;10124;53.068;18.224;2023-02-24T15:49:00;4.10;1.00
19924;DHT22;10124;53.068;18.224;2023-02-24T15:51:33;4.10;1.00
19924;DHT22;10124;53.068;18.224;2023-02-24T15:54:03;4.10;1.00
19924;DHT22;10124;53.068;18.224;2023-02-24T15:56:32;4.00;1.00
19924;DHT22;10124;53.068;18.224;2023-02-24T15:59:01;4.00;1.00
19924;DHT22;10124;53.068;18.224;2023-02-24T16:01:29;4.50;1.00
19924;DHT22;10124;53.068;18.224;2023-02-24T16:03:58;4.00;1.00
19924;DHT22;10124;53.068;18.224;2023-02-24T16:06:26;5.50;1.00
19924;DHT22;10124;53.068;18.224;2023-02-24T16:08:56;4.00;1.00
19924;DHT22;10124;53.068;18.224;2023-02-24T16:11:26;3.90;1.00
19924;DHT22;10124;53.068;18.224;2023-02-24T16:13:59;4.00;1.00
19924;DHT22;10124;53.068;18.224;2023-02-24T16:16:26;3.90;1.00
19924;DHT22;10124;53.068;18.224;2023-02-24T16:18:54;3.90;1.00
19924;DHT22;10124;53.068;18.224;2023-02-24T16:21:22;3.90;1.00
19924;DHT22;10124;53.068;18.224;2023-02-24T16:23:50;3.90;1.00
19924;DHT22;10124;53.068;18.224;2023-02-24T16:26:19;3.80;1.00
19924;DHT22;10124;53.068;18.224;2023-02-24T16:28:55;3.80;1.00
19924;DHT22;10124;53.068;18.224;2023-02-24T16:31:24;3.80;1.00
19924;DHT22;10124;53.068;18.224;2023-02-24T16:33:53;3.80;1.00
19924;DHT22;10124;53.068;18.224;2023-02-24T16:36:23;3.80;1.00
19924;DHT22;10124;53.068;18.224;2023-02-24T16:38:52;3.70;1.00
19924;DHT22;10124;53.068;18.224;2023-02-24T16:41:19;3.80;1.00
19924;DHT22;10124;53.068;18.224;2023-02-24T16:43:47;3.80;1.00
19924;DHT22;10124;53.068;18.224;2023-02-24T16:46:20;3.80;1.00
19924;DHT22;10124;53.068;18.224;2023-02-24T16:48:51;3.80;1.00
19924;DHT22;10124;53.068;18.224;2023-02-24T16:51:21;3.80;1.00
19924;DHT22;10124;53.068;18.224;2023-02-24T16:53:49;3.80;1.00
19924;DHT22;10124;53.068;18.224;2023-02-24T16:56:17;3.70;1.00
19924;DHT22;10124;53.068;18.224;2023-02-24T16:58:47;3.70;1.00
19924;DHT22;10124;53.068;18.224;2023-02-24T17:01:19;3.80;1.00
19924;DHT22;10124;53.068;18.224;2023-02-24T17:03:51;3.70;1.00
19924;DHT22;10124;53.068;18.224;2023-02-24T17:06:21;3.70;1.00
19924;DHT22;10124;53.068;18.224;2023-02-24T17:08:52;3.70;1.00
19924;DHT22;10124;53.068;18.224;2023-02-24T17:11:20;4.60;1.00
19924;DHT22;10124;53.068;18.224;2023-02-24T17:13:50;3.80;1.00
19924;DHT22;10124;53.068;18.224;2023-02-24T17:16:18;3.80;1.00
19924;DHT22;10124;53.068;18.224;2023-02-24T17:18:47;3.80;1.00
19924;DHT22;10124;53.068;18.224;2023-02-24T17:21:15;3.80;1.00
19924;DHT22;10124;53.068;18.224;2023-02-24T17:23:45;3.80;1.00
19924;DHT22;10124;53.068;18.224;2023-02-24T17:26:13;3.80;1.00
19924;DHT22;10124;53.068;18.224;2023-02-24T17:28:42;3.80;1.00
19924;DHT22;10124;53.068;18.224;2023-02-24T17:31:10;3.90;1.00
19924;DHT22;10124;53.068;18.224;2023-02-24T17:33:39;3.90;1.00
19924;DHT22;10124;53.068;18.224;2023-02-24T17:36:07;3.80;1.00
19924;DHT22;10124;53.068;18.224;2023-02-24T17:38:36;3.80;1.00
19924;DHT22;10124;53.068;18.224;2023-02-24T17:41:04;3.90;1.00
19924;DHT22;10124;53.068;18.224;2023-02-24T17:43:32;3.90;1.00
19924;DHT22;10124;53.068;18.224;2023-02-24T17:46:01;3.80;1.00
19924;DHT22;10124;53.068;18.224;2023-02-24T17:48:32;3.80;1.00
19924;DHT22;10124;53.068;18.224;2023-02-24T17:51:01;3.90;1.00
19924;DHT22;10124;53.068;18.224;2023-02-24T17:53:29;3.80;1.00
19924;DHT22;10124;53.068;18.224;2023-02-24T17:56:05;3.80;1.00
19924;DHT22;10124;53.068;18.224;2023-02-24T17:58:34;3.80;1.00
19924;DHT22;10124;53.068;18.224;2023-02-24T18:01:04;4.20;1.00
19924;DHT22;10124;53.068;18.224;2023-02-24T18:03:34;3.90;1.00
19924;DHT22;10124;53.068;18.224;2023-02-24T18:06:08;3.80;1.00
19924;DHT22;10124;53.068;18.224;2023-02-24T18:08:38;3.80;1.00
19924;DHT22;10124;53.068;18.224;2023-02-24T18:11:10;3.90;1.00
19924;DHT22;10124;53.068;18.224;2023-02-24T18:13:40;3.90;1.00
19924;DHT22;10124;53.068;18.224;2023-02-24T18:16:12;3.90;1.00
19924;DHT22;10124;53.068;18.224;2023-02-24T18:18:42;3.90;1.00
19924;DHT22;10124;53.068;18.224;2023-02-24T18:21:10;3.90;1.00
19924;DHT22;10124;53.068;18.224;2023-02-24T18:23:39;3.90;1.00
19924;DHT22;10124;53.068;18.224;2023-02-24T18:26:09;3.90;1.00
19924;DHT22;10124;53.068;18.224;2023-02-24T18:28:37;3.90;1.00
19924;DHT22;10124;53.068;18.224;2023-02-24T18:31:14;3.90;1.00
19924;DHT22;10124;53.068;18.224;2023-02-24T18:33:43;4.00;1.00
19924;DHT22;10124;53.068;18.224;2023-02-24T18:36:12;3.90;1.00
19924;DHT22;10124;53.068;18.224;2023-02-24T18:38:41;3.90;1.00
19924;DHT22;10124;53.068;18.224;2023-02-24T18:41:17;3.90;1.00
19924;DHT22;10124;53.068;18.224;2023-02-24T18:43:49;3.90;1.00
19924;DHT22;10124;53.068;18.224;2023-02-24T18:46:19;4.00;1.00
19924;DHT22;10124;53.068;18.224;2023-02-24T18:48:48;3.90;1.00
19924;DHT22;10124;53.068;18.224;2023-02-24T18:51:20;3.90;1.00
19924;DHT22;10124;53.068;18.224;2023-02-24T18:53:49;3.90;1.00
19924;DHT22;10124;53.068;18.224;2023-02-24T18:56:22;3.90;1.00
19924;DHT22;10124;53.068;18.224;2023-02-24T18:58:57;3.90;1.00
19924;DHT22;10124;53.068;18.224;2023-02-24T19:01:29;4.00;1.00
19924;DHT22;10124;53.068;18.224;2023-02-24T19:03:58;3.90;1.00
19924;DHT22;10124;53.068;18.224;2023-02-24T19:06:27;4.00;1.00
19924;DHT22;10124;53.068;18.224;2023-02-24T19:08:59;3.90;1.00
19924;DHT22;10124;53.068;18.224;2023-02-24T19:11:28;4.00;1.00
19924;DHT22;10124;53.068;18.224;2023-02-24T19:13:57;4.00;1.00
19924;DHT22;10124;53.068;18.224;2023-02-24T19:16:25;3.90;1.00
19924;DHT22;10124;53.068;18.224;2023-02-24T19:18:55;3.90;1.00
19924;DHT22;10124;53.068;18.224;2023-02-24T19:21:25;3.90;1.00
19924;DHT22;10124;53.068;18.224;2023-02-24T19:23:53;3.90;1.00
19924;DHT22;10124;53.068;18.224;2023-02-24T19:26:23;3.90;1.00
19924;DHT22;10124;53.068;18.224;2023-02-24T19:28:52;3.90;1.00
19924;DHT22;10124;53.068;18.224;2023-02-24T19:31:24;4.70;1.00
19924;DHT22;10124;53.068;18.224;2023-02-24T19:33:55;3.90;1.00
19924;DHT22;10124;53.068;18.224;2023-02-24T19:36:23;3.90;1.00
19924;DHT22;10124;53.068;18.224;2023-02-24T19:38:52;3.90;1.00
19924;DHT22;10124;53.068;18.224;2023-02-24T19:41:21;3.90;1.00
19924;DHT22;10124;53.068;18.224;2023-02-24T19:43:50;3.90;1.00
19924;DHT22;10124;53.068;18.224;2023-02-24T19:46:20;3.80;1.00
19924;DHT22;10124;53.068;18.224;2023-02-24T19:48:50;3.80;1.00
19924;DHT22;10124;53.068;18.224;2023-02-24T19:51:22;3.80;1.00
19924;DHT22;10124;53.068;18.224;2023-02-24T19:53:58;3.80;1.00
19924;DHT22;10124;53.068;18.224;2023-02-24T19:56:34;3.80;1.00
19924;DHT22;10124;53.068;18.224;2023-02-24T19:59:07;3.80;1.00
19924;DHT22;10124;53.068;18.224;2023-02-24T20:01:37;3.80;1.00
19924;DHT22;10124;53.068;18.224;2023-02-24T20:04:08;3.90;1.00
19924;DHT22;10124;53.068;18.224;2023-02-24T20:06:39;3.50;1.00
19924;DHT22;10124;53.068;18.224;2023-02-24T20:09:13;3.80;1.00
19924;DHT22;10124;53.068;18.224;2023-02-24T20:11:47;3.90;1.00
19924;DHT22;10124;53.068;18.224;2023-02-24T20:14:19;3.80;1.00
19924;DHT22;10124;53.068;18.224;2023-02-24T20:16:48;3.80;1.00
19924;DHT22;10124;53.068;18.224;2023-02-24T20:19:18;3.80;1.00
19924;DHT22;10124;53.068;18.224;2023-02-24T20:21:47;3.80;1.00
19924;DHT22;10124;53.068;18.224;2023-02-24T20:24:22;3.80;1.00
19924;DHT22;10124;53.068;18.224;2023-02-24T20:26:56;3.80;1.00
19924;DHT22;10124;53.068;18.224;2023-02-24T20:29:25;3.80;1.00
19924;DHT22;10124;53.068;18.224;2023-02-24T20:31:58;3.80;1.00
19924;DHT22;10124;53.068;18.224;2023-02-24T20:34:29;3.80;1.00
19924;DHT22;10124;53.068;18.224;2023-02-24T20:36:59;3.80;1.00
19924;DHT22;10124;53.068;18.224;2023-02-24T20:39:32;3.70;1.00
19924;DHT22;10124;53.068;18.224;2023-02-24T20:42:01;3.80;1.00
19924;DHT22;10124;53.068;18.224;2023-02-24T20:44:31;3.80;1.00
19924;DHT22;10124;53.068;18.224;2023-02-24T20:47:01;3.70;1.00
19924;DHT22;10124;53.068;18.224;2023-02-24T20:49:32;3.70;1.00
19924;DHT22;10124;53.068;18.224;2023-02-24T20:52:01;3.70;1.00
19924;DHT22;10124;53.068;18.224;2023-02-24T20:54:29;3.70;1.00